Moapa Valley, Nevada Weather observations

Data are for 10 minute period ending at time listed.
 Day   Time   Solar   Ave.   Ave.  Ave.  Vector  Max.   Baro.   Total    
  of    of     Rad.   Air    Rel.  Wind   Wind   Wind  Press.  Precip.   
Year   Day            Temp.  Hum.  Speed  Dir.   Gust                    
2015   (PST)  Kw/m2    F      %     mph   deg.    mph    mb.     in.     
-------------------------------------------------------------------------
 247    0:00   100.00  99999.0   99999  99999.0   99999   99999.0   99999.0   99999.00 
 247    0:10   100.00  99999.0   99999  99999.0   99999   99999.0   99999.0   99999.00 
 247    0:20   100.00  99999.0   99999  99999.0   99999   99999.0   99999.0   99999.00 
 247    0:30   100.00  99999.0   99999  99999.0   99999   99999.0   99999.0   99999.00 
 247    0:40   100.00  99999.0   99999  99999.0   99999   99999.0   99999.0   99999.00 
 247    0:50   100.00  99999.0   99999  99999.0   99999   99999.0   99999.0   99999.00 
 247    1:00   100.00  99999.0   99999  99999.0   99999   99999.0   99999.0   99999.00 
 247    1:10   100.00  99999.0   99999  99999.0   99999   99999.0   99999.0   99999.00 
 247    1:20   100.00  99999.0   99999  99999.0   99999   99999.0   99999.0   99999.00 
 247    1:30   100.00  99999.0   99999  99999.0   99999   99999.0   99999.0   99999.00 
 247    1:40   0.00   84.1    34   10.7   142    16.7   959.6    0.00 
 247    1:50   0.00   84.2    35   10.7   147    17.4   959.7    0.00 
 247    2:00   0.00   83.9    36    9.8   143    18.1   959.8    0.00 
 247    2:10   0.00   83.4    37    9.3   143    14.6   959.9    0.00 
 247    2:20   0.00   83.4    38   10.7   138    15.6   959.9    0.00 
 247    2:30   0.00   83.3    38   10.1   144    17.4   959.9    0.00 
 247    2:40   0.00   83.0    39    9.8   141    17.1   959.9    0.00 
 247    2:50   0.00   82.5    40    8.9   140    14.2   959.9    0.00 
 247    3:00   0.00   82.1    40    9.0   134    13.8   959.9    0.00 
 247    3:10   0.00   81.2    42    6.9   132    13.5   960.0    0.00 
 247    3:20   0.00   81.1    42    6.9   143    11.7   960.1    0.00 
 247    3:30   0.00   81.6    40    7.8   142    11.7   960.1    0.00 
 247    3:40   0.00   81.6    40    8.0   140    12.4   960.1    0.00 
 247    3:50   0.00   81.8    40    9.2   139    14.2   960.2    0.00 
 247    4:00   0.00   81.7    40    8.4   143    14.2   960.3    0.00 
 247    4:10   0.00   81.3    41    7.3   139    11.7   960.4    0.00 
 247    4:20   0.00   79.9    43    6.2   119     9.2   960.5    0.00 
 247    4:30   0.00   78.8    46    6.2   112     9.6   960.6    0.00 
 247    4:40   0.00   78.3    47    4.9   119     7.4   960.8    0.00 
 247    4:50   0.00   78.0    47    3.9   116     5.6   961.0    0.00 
 247    5:00   0.00   77.9    48    3.8   117     6.0   961.1    0.00 
 247    5:10   0.00   77.8    49    4.4   108     6.3   961.1    0.00 
 247    5:20   0.01   77.6    49    4.3    93     6.3   961.1    0.00 
 247    5:30   0.01   77.0    51    2.9   130     4.9   961.3    0.00 
 247    5:40   0.04   77.8    49    2.9   128     4.9   961.4    0.00 
 247    5:50   0.07   77.7    50    3.2   131     5.6   961.4    0.00 
 247    6:00   0.10   78.6    49    3.9   138     7.1   961.6    0.00 
 247    6:10   0.13   80.0    48    5.0   147     9.9   961.7    0.00 
 247    6:20   0.16   80.5    48    5.9   145     9.9   961.7    0.00 
 247    6:30   0.20   80.9    48    7.5   154    12.8   961.9    0.00 
 247    6:40   0.23   81.3    48    8.2   155    14.6   961.9    0.00 
 247    6:50   0.27   81.7    48    8.9   151    16.4   961.9    0.00 
 247    7:00   0.31   81.8    48    9.8   153    17.8   962.0    0.00 
 247    7:10   0.36   82.2    48    9.3   151    14.9   962.0    0.00 
 247    7:20   0.40   82.5    48    9.8   149    15.3   962.1    0.00 
 247    7:30   0.44   82.6    50    8.7   160    15.3   962.1    0.00 
 247    7:40   0.48   82.7    50    8.2   169    13.8   962.1    0.00 
 247    7:50   0.52   83.5    49    8.0   148    12.4   962.0    0.00 
 247    8:00   0.56   83.7    49    8.0   142    13.8   962.0    0.00 
 247    8:10   0.60   84.0    48    9.0   154    14.2   962.0    0.00 
 247    8:20   0.66   84.1    48    8.7   158    15.6   962.0    0.00 
 247    8:30   0.71   84.9    48    8.4   148    16.4   961.9    0.00 
 247    8:40   0.71   85.0    47    9.1   163    13.5   961.9    0.00 
 247    8:50   0.74   84.8    48    9.5   160    15.6   961.9    0.00 
 247    9:00   0.77   85.1    46   10.4   152    17.8   961.9    0.00 
 247    9:10   0.80   85.6    46   10.1   148    19.9   961.9    0.00 
 247    9:20   0.84   85.8    46    9.6   158    14.9   961.8    0.00 
 247    9:30   0.86   86.0    46   10.2   150    18.9   961.7    0.00 
 247    9:40   0.87   86.3    45   11.2   143    18.5   961.6    0.00 
 247    9:50   0.90   86.8    43   11.1   154    16.7   961.5    0.00 
 247   10:00   0.92   86.8    44   11.0   154    17.4   961.5    0.00 
 247   10:10   0.94   87.2    42   12.1   160    17.8   961.3    0.00 
 247   10:20   0.96   87.3    40   12.5   146    17.8   961.3    0.00 
 247   10:30   0.97   87.9    38   11.6   153    18.1   961.2    0.00 
 247   10:40   0.99   87.9    39   11.8   146    18.5   961.0    0.00 
 247   10:50   1.00   88.3    37   11.7   148    17.4   960.8    0.00 
 247   11:00   1.02   88.6    37   11.5   153    17.8   960.7    0.00 
 247   11:10   1.03   89.1    36   10.9   163    17.8   960.6    0.00 
 247   11:20   1.04   89.2    36   10.7   162    17.4   960.4    0.00 
 247   11:30   1.02   89.1    36   11.9   158    19.9   960.4    0.00 
 247   11:40   0.92   89.1    35   10.9   162    19.6   960.3    0.00 
 247   11:50   1.03   89.8    34   11.4   153    18.5   960.2    0.00 
 247   12:00   0.99   89.5    35   10.3   168    20.6   960.1    0.00 
 247   12:10   1.03   89.8    33   11.4   153    19.2   959.9    0.00 
 247   12:20   1.03   90.3    32   10.9   146    16.4   959.7    0.00 
 247   12:30   1.01   90.7    32   11.7   156    19.9   959.6    0.00 
 247   12:40   1.02   90.9    31   11.5   156    20.6   959.5    0.00 
 247   12:50   0.98   91.4    31   11.0   153    16.4   959.3    0.00 
 247   13:00   0.74   90.8    31    9.5   169    15.6   959.1    0.00 
 247   13:10   0.97   91.3    30    9.7   148    16.0   958.9    0.00 
 247   13:20   0.91   91.5    29   12.9   157    20.6   958.8    0.00 
 247   13:30   0.91   91.7    30   10.2   158    17.8   958.5    0.00 
 247   13:40   0.71   91.6    28   11.3   138    18.5   958.3    0.00 
 247   13:50   0.87   92.2    28   10.1   150    17.8   958.2    0.00 
 247   14:00   0.84   92.3    27   12.1   162    20.6   958.0    0.00 
 247   14:10   0.82   92.5    26   10.7   155    18.1   957.9    0.00 
 247   14:20   0.76   92.4    26   13.1   144    26.0   957.8    0.00 
 247   14:30   0.75   92.5    26   10.5   172    17.1   957.7    0.00 
 247   14:40   0.73   92.6    27   10.9   158    23.5   957.6    0.00 
 247   14:50   0.59   92.4    27    9.7   151    16.0   957.6    0.00 
 247   15:00   0.35   91.6    26   11.6   150    18.5   957.5    0.00 
 247   15:10   0.37   91.9    27   10.4   152    18.5   957.4    0.00 
 247   15:20   0.51   91.9    27   11.7   143    17.8   957.3    0.00 
 247   15:30   0.50   92.4    26   12.7   147    19.2   957.3    0.00 
 247   15:40   0.32   92.0    26   11.7   153    22.4   957.2    0.00 
 247   15:50   0.48   92.3    26   12.3   147    18.9   957.3    0.00 
 247   16:00   0.46   92.4    27   11.3   144    23.9   957.2    0.00 
 247   16:10   0.39   92.5    26   12.3   147    22.8   957.2    0.00 
 247   16:20   0.27   92.2    26   12.4   146    18.1   957.2    0.00 
 247   16:30   0.30   92.1    26   12.1   145    21.4   957.1    0.00 
 247   16:40   0.20   92.2    25   11.4   154    17.8   957.2    0.00 
 247   16:50   0.16   91.9    24   11.5   157    18.5   957.2    0.00 
 247   17:00   0.08   91.4    25    9.8   162    16.4   957.2    0.00 
 247   17:10   0.05   91.7    23   10.0   159    16.7   957.1    0.00 
 247   17:20   0.06   91.9    23   11.0   155    17.1   957.1    0.00 
 247   17:30   0.07   91.9    22   10.2   161    18.1   957.2    0.00 
 247   17:40   0.04   91.8    21    9.5   149    16.0   957.2    0.00 
 247   17:50   0.02   91.5    23   10.1   146    18.5   957.2    0.00 
 247   18:00   0.01   91.5    23   11.0   150    19.6   957.2    0.00 
 247   18:10   0.00   91.4    23    9.6   154    15.3   957.2    0.00 
 247   18:20   0.00   91.3    23    9.4   152    14.9   957.2    0.00 
 247   18:30   0.00   91.1    24    9.4   152    15.3   957.3    0.00 
 247   18:40   0.00   91.1    24    9.9   154    17.4   957.4    0.00 
 247   18:50   0.00   90.7    24    9.1   155    16.0   957.5    0.00 
 247   19:00   0.00   90.8    24    9.9   150    16.0   957.6    0.00 
 247   19:10   0.00   90.8    23    9.4   153    14.9   957.8    0.00 
 247   19:20   0.00   90.7    22    9.7   148    14.6   958.0    0.00 
 247   19:30   0.00   90.4    20    9.5   148    16.7   958.1    0.00 
 247   19:40   0.00   90.1    19    8.3   148    13.5   958.3    0.00 
 247   19:50   0.00   90.4    16    9.5   153    13.8   958.5    0.00 
 247   20:00   0.00   90.2    15    7.2   161    11.0   958.6    0.00 
 247   20:10   0.00   89.1    16    5.7   164    11.3   958.7    0.00 
 247   20:20   0.00   88.5    15    5.8   162     8.5   958.7    0.00 
 247   20:30   0.00   88.4    15    5.5   162    11.3   958.8    0.00 
 247   20:40   0.00   89.0    14    7.4   167    12.4   958.9    0.00 
 247   20:50   0.00   88.9    14    6.0   170    11.7   959.1    0.00 
 247   21:00   0.00   88.2    14    6.0   168    12.1   959.1    0.00 
 247   21:10   0.00   87.7    14    5.2   168     8.1   959.2    0.00 
 247   21:20   0.00   87.0    14    5.3   178     9.2   959.2    0.00 
 247   21:30   0.00   87.7    14    6.2   182     9.6   959.3    0.00 
 247   21:40   0.00   87.8    14    6.9   181    11.7   959.4    0.00 
 247   21:50   0.00   87.4    14    5.8   176     9.2   959.4    0.00 
 247   22:00   0.00   86.2    16    5.0   160     8.8   959.6    0.00 
 247   22:10   0.00   81.3    22    3.4   129     4.9   959.7    0.00 
 247   22:20   0.00   81.0    21    4.4   157    10.3   959.7    0.00 
 247   22:30   0.00   81.8    21    4.1   127     7.8   959.8    0.00 
 247   22:40   0.00   80.2    22    3.4   125     4.9   960.0    0.00 
 247   22:50   0.00   78.7    23    3.6   126     5.3   960.0    0.00 
 247   23:00   0.00   77.9    24    2.6   124     3.8   960.1    0.00 
 247   23:10   0.00   77.7    24    2.7   134     4.6   960.1    0.00 
 247   23:20   0.00   78.2    23    3.1   138     4.2   960.1    0.00 
 247   23:30   0.00   78.7    22    3.2   125     4.2   960.1    0.00 
 247   23:40   0.00   78.8    22    3.6   106     4.6   960.2    0.00 

Return to Moapa Valley graphs page.


Western Regional Climate Center,wrcc@dri.edu